Eagle Butte, South Dakota
Current Conditions -  °F | °C
As of 5:52 PM on Sunday 23 Nov 2014 (Local Time) from KMBG Reporting Station
Overcast Overcast  
Wind Chill: 12°   Ceiling: 2800
Heat Index: 26°   Visibility: 10mi
Dew Point: 17°   Wind: 20mph
Humidity: 69%   Direction: 330°NNW
Pressure: 29.65"   Gusts: 30mph
Location:  45°N, 101.24°W
Report Text: KMBG 240052Z AUTO 33017G26KT 10SM BKN028 OVC040 M03/M08 A2965 RMK AO2 PK WND 32031/2357 SLP057 T10331083
Loading
Personal Weather Stations






























Interactive Weather Map New forecast layout! Learn more

10-Day Weather Forecast

Advertisements
Track Severe Weather on mobile